TimeHST,TemperatureF,Dew PointF,Humidity,Sea Level PressureIn,VisibilityMPH,Wind Direction,Wind SpeedMPH,Gust SpeedMPH,PrecipitationIn,Events,Conditions,WindDirDegrees,DateUTC
12:54 AM,69.1,64.9,87,29.98,10.0,SW,4.6,-,N/A,,Mostly Cloudy,220,2013-03-09 10:54:00
1:54 AM,72.0,66.9,84,29.95,10.0,SW,4.6,-,N/A,,Overcast,220,2013-03-09 11:54:00
2:54 AM,72.0,66.0,81,29.94,10.0,SSW,11.5,-,N/A,,Mostly Cloudy,210,2013-03-09 12:54:00
3:54 AM,71.1,64.9,81,29.92,10.0,SSW,11.5,-,N/A,,Partly Cloudy,200,2013-03-09 13:54:00
4:54 AM,72.0,64.9,78,29.91,10.0,SSW,10.4,-,N/A,,Mostly Cloudy,210,2013-03-09 14:54:00
5:54 AM,72.0,64.9,78,29.91,10.0,SSW,15.0,-,N/A,,Clear,210,2013-03-09 15:54:00
6:54 AM,73.0,64.9,76,29.93,10.0,SSW,15.0,23.0,N/A,,Scattered Clouds,210,2013-03-09 16:54:00
7:54 AM,73.0,66.9,81,29.94,10.0,SSW,19.6,28.8,0.03,,Scattered Clouds,210,2013-03-09 17:54:00
8:54 AM,75.9,66.0,71,29.96,10.0,SSW,26.5,32.2,N/A,,Scattered Clouds,210,2013-03-09 18:54:00
9:54 AM,77.0,66.9,71,29.97,10.0,SSW,25.3,32.2,N/A,,Scattered Clouds,210,2013-03-09 19:54:00
10:54 AM,80.1,64.9,60,29.97,10.0,SSW,23.0,32.2,N/A,,Scattered Clouds,200,2013-03-09 20:54:00
11:54 AM,80.1,63.0,56,29.95,10.0,South,26.5,-,N/A,,Scattered Clouds,190,2013-03-09 21:54:00
12:54 PM,77.0,66.9,71,29.93,10.0,SSW,21.9,34.5,0.00,Rain,Light Rain,210,2013-03-09 22:54:00
1:54 PM,80.1,64.9,60,29.91,10.0,SSW,24.2,34.5,0.00,,Scattered Clouds,200,2013-03-09 23:54:00
2:54 PM,78.1,64.0,62,29.89,10.0,SSW,24.2,33.4,N/A,,Scattered Clouds,200,2013-03-10 00:54:00
3:54 PM,78.1,64.9,64,29.89,10.0,SSW,18.4,29.9,N/A,,Scattered Clouds,200,2013-03-10 01:54:00
4:54 PM,77.0,66.9,71,29.89,10.0,SW,18.4,28.8,N/A,,Mostly Cloudy,220,2013-03-10 02:54:00
5:54 PM,75.9,66.9,74,29.91,10.0,SW,12.7,28.8,N/A,,Mostly Cloudy,220,2013-03-10 03:54:00
6:54 PM,73.9,66.0,76,29.93,10.0,SW,15.0,21.9,N/A,,Mostly Cloudy,220,2013-03-10 04:54:00
7:54 PM,73.9,66.9,79,29.94,10.0,SSW,9.2,-,N/A,,Overcast,200,2013-03-10 05:54:00
8:54 PM,70.0,64.0,81,29.97,10.0,Calm,Calm,-,0.00,,Overcast,0,2013-03-10 06:54:00
9:54 PM,70.0,64.0,81,29.97,10.0,SSE,9.2,-,N/A,,Mostly Cloudy,160,2013-03-10 07:54:00
10:54 PM,69.1,64.0,84,29.97,10.0,South,16.1,-,N/A,,Mostly Cloudy,180,2013-03-10 08:54:00
11:54 PM,69.1,64.9,87,29.96,10.0,South,15.0,-,N/A,,Overcast,190,2013-03-10 09:54:00